Bethel, NY (12720)

7:14 AM EDT on August 30, 2015 (GMT -0400)
Sullivan County International | | Change Station
CLOSE
Current Station
Airport
Location: Monticello,
Elevation: 1404 ft
Nearby Weather Stations

Elev 1404 ft 41.70 °N, 74.80 °W | Updated 19 minutes ago

Overcast
Overcast
57 °F
Feels Like 57 °F
N
0
Wind Variable Wind from North

Today
High -- | Low -- °F
--% Chance of Precip.
Yesterday
High -- | Low -- °F
Precip. -- in
6:23 AM 7:36 PM
Full, 99% visible
Pressure 30.15 in
Visibility 3.0 miles
Clouds Mostly Cloudy 100 ft
Mostly Cloudy 7000 ft
Overcast 9000 ft
Dew Point 57 °F
Humidity 100%
Rainfall 0.00 in
Snow Depth Not available.
UV 0 out of 12
Pollen 9.40 out of 12
Air Quality Not available.
Flu Activity Not available.
METAR KMSV 301055Z AUTO 00000KT 3SM BKN001 BKN070 OVC090 14/14 A3015 RMK AO1
Pressure 30.15 in
Visibility 3.0 miles
Clouds Mostly Cloudy 100 ft
Mostly Cloudy 7000 ft
Overcast 9000 ft
Dew Point 57 °F
Humidity 100%
Rainfall 0.00 in
Snow Depth Not available.
UV 0 out of 12
Pollen 9.40 out of 12
Air Quality Not available.
Flu Activity Not available.
METAR KMSV 301055Z AUTO 00000KT 3SM BKN001 BKN070 OVC090 14/14 A3015 RMK AO1

10-Day Weather Forecast

×

Almanac

Astronomy

Aug. 30, 2015 Rise Set
Actual Time
Civil Twilight
Nautical Twilight
Astronomical Twilight
Moon
Length of Visible Light
Length of Day
Tomorrow will be .
, % of the Moon is Illuminated

Today's Extremes

State Highs State Lows

Community

WunderPhotos

Upload Photos

1,850,925 photos uploaded!

WunderBlogs® & News

Nearby

Air Quality

  Air Quality AQ Index Pollutant
Not available.

Snow Depth

Station Depth Elevation

Earthquake Activity

City Distance Mag. Time & Date
Minimum magnitude displayed is 2.5.

Coastal Water Temperatures

Place Temperature

Stations

Nearby Weather Stations

Station Location Temp. Windchill Dew Point Humidity Wind Precip. Elev Updated Type